sensor_id;sensor_type;location;lat;lon;timestamp;pressure;altitude;pressure_sealevel;temperature;humidity
2785;BME280;57944;48.722;9.316;2024-03-06T00:01:08;98085.84;;;4.94;100.00
2785;BME280;57944;48.722;9.316;2024-03-06T00:03:38;98088.06;;;4.97;100.00
2785;BME280;57944;48.722;9.316;2024-03-06T00:06:09;98091.88;;;5.01;100.00
2785;BME280;57944;48.722;9.316;2024-03-06T00:08:39;98090.94;;;5.02;100.00
2785;BME280;57944;48.722;9.316;2024-03-06T00:11:13;98095.34;;;5.00;100.00
2785;BME280;57944;48.722;9.316;2024-03-06T00:13:43;98099.75;;;4.98;100.00
2785;BME280;57944;48.722;9.316;2024-03-06T00:16:16;98095.66;;;4.97;100.00
2785;BME280;57944;48.722;9.316;2024-03-06T00:18:47;98096.59;;;4.96;100.00
2785;BME280;57944;48.722;9.316;2024-03-06T00:21:18;98105.94;;;5.04;100.00
2785;BME280;57944;48.722;9.316;2024-03-06T00:23:48;98103.56;;;5.02;100.00
2785;BME280;57944;48.722;9.316;2024-03-06T00:26:22;98102.81;;;5.10;100.00
2785;BME280;57944;48.722;9.316;2024-03-06T00:28:52;98102.31;;;5.14;100.00
2785;BME280;57944;48.722;9.316;2024-03-06T00:31:23;98106.94;;;5.19;100.00
2785;BME280;57944;48.722;9.316;2024-03-06T00:33:53;98110.88;;;5.22;100.00
2785;BME280;57944;48.722;9.316;2024-03-06T00:36:24;98109.28;;;5.21;100.00
2785;BME280;57944;48.722;9.316;2024-03-06T00:38:55;98102.03;;;5.18;100.00
2785;BME280;57944;48.722;9.316;2024-03-06T00:41:28;98102.03;;;5.18;100.00
2785;BME280;57944;48.722;9.316;2024-03-06T00:43:59;98106.72;;;5.12;100.00
2785;BME280;57944;48.722;9.316;2024-03-06T00:46:26;98104.81;;;5.06;100.00
2785;BME280;57944;48.722;9.316;2024-03-06T00:48:54;98102.31;;;5.06;100.00
2785;BME280;57944;48.722;9.316;2024-03-06T00:51:22;98099.59;;;5.00;100.00
2785;BME280;57944;48.722;9.316;2024-03-06T00:54:07;98104.66;;;5.00;100.00
2785;BME280;57944;48.722;9.316;2024-03-06T00:56:40;98108.28;;;4.97;100.00
2785;BME280;57944;48.722;9.316;2024-03-06T00:59:08;98103.84;;;4.91;100.00
2785;BME280;57944;48.722;9.316;2024-03-06T01:01:39;98106.38;;;4.91;100.00
2785;BME280;57944;48.722;9.316;2024-03-06T01:04:09;98106.97;;;4.85;100.00
2785;BME280;57944;48.722;9.316;2024-03-06T01:06:40;98109.50;;;4.85;100.00
2785;BME280;57944;48.722;9.316;2024-03-06T01:09:10;98109.47;;;4.77;100.00
2785;BME280;57944;48.722;9.316;2024-03-06T01:11:44;98111.53;;;4.81;100.00
2785;BME280;57944;48.722;9.316;2024-03-06T01:14:16;98100.59;;;4.73;100.00
2785;BME280;57944;48.722;9.316;2024-03-06T01:16:47;98102.81;;;4.76;100.00
2785;BME280;57944;48.722;9.316;2024-03-06T01:19:18;98103.47;;;4.78;100.00
2785;BME280;57944;48.722;9.316;2024-03-06T01:21:48;98104.75;;;4.82;100.00
2785;BME280;57944;48.722;9.316;2024-03-06T01:24:19;98108.69;;;4.84;100.00
2785;BME280;57944;48.722;9.316;2024-03-06T01:26:52;98100.97;;;4.86;100.00
2785;BME280;57944;48.722;9.316;2024-03-06T01:29:22;98102.56;;;4.87;100.00
2785;BME280;57944;48.722;9.316;2024-03-06T01:31:53;98097.44;;;4.70;100.00
2785;BME280;57944;48.722;9.316;2024-03-06T01:34:24;98099.97;;;4.70;100.00
2785;BME280;57944;48.722;9.316;2024-03-06T01:36:55;98100.66;;;4.81;100.00
2785;BME280;57944;48.722;9.316;2024-03-06T01:39:25;98101.31;;;4.91;100.00
2785;BME280;57944;48.722;9.316;2024-03-06T01:41:58;98107.00;;;5.01;100.00
2785;BME280;57944;48.722;9.316;2024-03-06T01:44:29;98112.91;;;5.10;100.00
2785;BME280;57944;48.722;9.316;2024-03-06T01:47:00;98114.34;;;5.21;100.00
2785;BME280;57944;48.722;9.316;2024-03-06T01:49:31;98115.78;;;5.23;100.00
2785;BME280;57944;48.722;9.316;2024-03-06T01:52:13;98117.19;;;5.18;100.00
2785;BME280;57944;48.722;9.316;2024-03-06T01:54:45;98117.19;;;5.18;100.00
2785;BME280;57944;48.722;9.316;2024-03-06T01:57:20;98114.97;;;5.14;100.00
2785;BME280;57944;48.722;9.316;2024-03-06T01:59:51;98115.28;;;5.11;100.00
2785;BME280;57944;48.722;9.316;2024-03-06T02:02:22;98123.47;;;5.05;100.00
2785;BME280;57944;48.722;9.316;2024-03-06T02:04:53;98117.97;;;5.10;100.00
2785;BME280;57944;48.722;9.316;2024-03-06T02:07:25;98116.69;;;5.14;100.00
2785;BME280;57944;48.722;9.316;2024-03-06T02:09:56;98125.06;;;5.14;100.00
2785;BME280;57944;48.722;9.316;2024-03-06T02:12:29;98121.59;;;5.07;100.00
2785;BME280;57944;48.722;9.316;2024-03-06T02:15:00;98123.94;;;5.09;100.00
2785;BME280;57944;48.722;9.316;2024-03-06T02:17:31;98123.78;;;5.02;100.00
2785;BME280;57944;48.722;9.316;2024-03-06T02:20:02;98116.94;;;4.95;100.00
2785;BME280;57944;48.722;9.316;2024-03-06T02:22:37;98115.84;;;4.97;100.00
2785;BME280;57944;48.722;9.316;2024-03-06T02:25:08;98114.44;;;4.95;100.00
2785;BME280;57944;48.722;9.316;2024-03-06T02:27:39;98107.63;;;4.95;100.00
2785;BME280;57944;48.722;9.316;2024-03-06T02:30:10;98109.25;;;4.96;100.00
2785;BME280;57944;48.722;9.316;2024-03-06T02:32:41;98106.84;;;4.95;100.00
2785;BME280;57944;48.722;9.316;2024-03-06T02:35:12;98104.47;;;4.93;100.00
2785;BME280;57944;48.722;9.316;2024-03-06T02:37:46;98112.03;;;4.93;100.00
2785;BME280;57944;48.722;9.316;2024-03-06T02:40:17;98112.66;;;4.87;100.00
2785;BME280;57944;48.722;9.316;2024-03-06T02:42:48;98104.47;;;4.93;100.00
2785;BME280;57944;48.722;9.316;2024-03-06T02:45:19;98104.47;;;4.93;100.00
2785;BME280;57944;48.722;9.316;2024-03-06T02:47:49;98109.38;;;4.95;100.00
2785;BME280;57944;48.722;9.316;2024-03-06T02:50:20;98109.50;;;4.93;100.00
2785;BME280;57944;48.722;9.316;2024-03-06T02:52:53;98104.47;;;4.93;100.00
2785;BME280;57944;48.722;9.316;2024-03-06T02:55:24;98101.31;;;4.91;100.00
2785;BME280;57944;48.722;9.316;2024-03-06T02:57:55;98117.41;;;4.90;100.00
2785;BME280;57944;48.722;9.316;2024-03-06T03:00:25;98109.88;;;5.06;100.00
2785;BME280;57944;48.722;9.316;2024-03-06T03:02:56;98117.19;;;5.18;100.00
2785;BME280;57944;48.722;9.316;2024-03-06T03:05:26;98122.53;;;5.14;100.00
2785;BME280;57944;48.722;9.316;2024-03-06T03:08:00;98121.59;;;5.07;100.00
2785;BME280;57944;48.722;9.316;2024-03-06T03:10:31;98113.97;;;4.99;100.00
2785;BME280;57944;48.722;9.316;2024-03-06T03:13:02;98119.50;;;5.03;100.00
2785;BME280;57944;48.722;9.316;2024-03-06T03:15:33;98116.19;;;5.02;100.00
2785;BME280;57944;48.722;9.316;2024-03-06T03:18:04;98118.56;;;5.04;100.00
2785;BME280;57944;48.722;9.316;2024-03-06T03:20:35;98111.59;;;4.98;100.00
2785;BME280;57944;48.722;9.316;2024-03-06T03:23:09;98118.47;;;4.79;100.00
2785;BME280;57944;48.722;9.316;2024-03-06T03:25:40;98123.53;;;4.87;100.00
2785;BME280;57944;48.722;9.316;2024-03-06T03:28:11;98120.69;;;4.82;100.00
2785;BME280;57944;48.722;9.316;2024-03-06T03:30:43;98121.16;;;4.78;100.00
2785;BME280;57944;48.722;9.316;2024-03-06T03:33:14;98126.97;;;4.78;100.00
2785;BME280;57944;48.722;9.316;2024-03-06T03:35:45;98123.06;;;4.84;100.00
2785;BME280;57944;48.722;9.316;2024-03-06T03:38:18;98123.38;;;4.81;100.00
2785;BME280;57944;48.722;9.316;2024-03-06T03:40:48;98128.59;;;4.79;100.00
2785;BME280;57944;48.722;9.316;2024-03-06T03:43:19;98131.72;;;4.81;100.00
2785;BME280;57944;48.722;9.316;2024-03-06T03:45:50;98131.53;;;4.75;100.00
2785;BME280;57944;48.722;9.316;2024-03-06T03:48:20;98128.84;;;4.76;100.00
2785;BME280;57944;48.722;9.316;2024-03-06T03:50:51;98131.84;;;4.72;100.00
2785;BME280;57944;48.722;9.316;2024-03-06T03:53:24;98133.72;;;4.69;100.00
2785;BME280;57944;48.722;9.316;2024-03-06T03:55:54;98133.91;;;4.76;100.00
2785;BME280;57944;48.722;9.316;2024-03-06T03:58:25;98137.88;;;4.79;100.00
2785;BME280;57944;48.722;9.316;2024-03-06T04:00:55;98136.56;;;4.66;100.00
2785;BME280;57944;48.722;9.316;2024-03-06T04:03:26;98137.00;;;4.62;100.00
2785;BME280;57944;48.722;9.316;2024-03-06T04:05:57;98140.47;;;4.61;100.00
2785;BME280;57944;48.722;9.316;2024-03-06T04:08:30;98140.94;;;4.64;100.00
2785;BME280;57944;48.722;9.316;2024-03-06T04:11:01;98138.91;;;4.68;100.00
2785;BME280;57944;48.722;9.316;2024-03-06T04:13:36;98142.41;;;4.67;100.00
2785;BME280;57944;48.722;9.316;2024-03-06T04:16:07;98143.53;;;4.73;100.00
2785;BME280;57944;48.722;9.316;2024-03-06T04:18:37;98141.66;;;4.75;100.00
2785;BME280;57944;48.722;9.316;2024-03-06T04:21:08;98147.66;;;4.74;100.00
2785;BME280;57944;48.722;9.316;2024-03-06T04:23:42;98146.66;;;4.66;100.00
2785;BME280;57944;48.722;9.316;2024-03-06T04:26:14;98149.19;;;4.66;100.00
2785;BME280;57944;48.722;9.316;2024-03-06T04:28:45;98153.28;;;4.67;100.00
2785;BME280;57944;48.722;9.316;2024-03-06T04:31:15;98152.34;;;4.68;100.00
2785;BME280;57944;48.722;9.316;2024-03-06T04:33:46;98155.50;;;4.70;100.00
2785;BME280;57944;48.722;9.316;2024-03-06T04:36:17;98156.31;;;4.71;100.00
2785;BME280;57944;48.722;9.316;2024-03-06T04:38:50;98159.94;;;4.68;100.00
2785;BME280;57944;48.722;9.316;2024-03-06T04:41:21;98160.84;;;4.67;100.00
2785;BME280;57944;48.722;9.316;2024-03-06T04:43:51;98166.59;;;4.78;100.00
2785;BME280;57944;48.722;9.316;2024-03-06T04:46:22;98165.63;;;4.79;100.00
2785;BME280;57944;48.722;9.316;2024-03-06T04:48:53;98173.22;;;4.79;100.00
2785;BME280;57944;48.722;9.316;2024-03-06T04:51:23;98168.16;;;4.79;100.00
2785;BME280;57944;48.722;9.316;2024-03-06T04:53:56;98172.28;;;4.80;100.00
2785;BME280;57944;48.722;9.316;2024-03-06T04:56:27;98177.16;;;4.81;100.00
2785;BME280;57944;48.722;9.316;2024-03-06T04:58:57;98179.88;;;4.80;100.00
2785;BME280;57944;48.722;9.316;2024-03-06T05:01:31;98187.78;;;4.85;100.00
2785;BME280;57944;48.722;9.316;2024-03-06T05:04:02;98188.41;;;4.87;100.00
2785;BME280;57944;48.722;9.316;2024-03-06T05:06:46;98184.25;;;4.78;100.00
2785;BME280;57944;48.722;9.316;2024-03-06T05:09:33;98185.22;;;4.77;100.00
2785;BME280;57944;48.722;9.316;2024-03-06T05:12:18;98188.06;;;4.82;100.00
2785;BME280;57944;48.722;9.316;2024-03-06T05:15:03;98188.19;;;4.72;100.00
2785;BME280;57944;48.722;9.316;2024-03-06T05:17:48;98186.13;;;4.76;100.00
2785;BME280;57944;48.722;9.316;2024-03-06T05:20:32;98191.06;;;4.77;100.00
2785;BME280;57944;48.722;9.316;2024-03-06T05:23:17;98191.72;;;4.87;100.00
2785;BME280;57944;48.722;9.316;2024-03-06T05:26:04;98194.47;;;4.94;100.00
2785;BME280;57944;48.722;9.316;2024-03-06T05:28:49;98197.91;;;4.93;100.00
2785;BME280;57944;48.722;9.316;2024-03-06T05:31:33;98197.94;;;5.01;100.00
2785;BME280;57944;48.722;9.316;2024-03-06T05:34:18;98203.91;;;4.92;100.00
2785;BME280;57944;48.722;9.316;2024-03-06T05:37:02;98206.13;;;4.95;100.00
2785;BME280;57944;48.722;9.316;2024-03-06T05:39:47;98209.56;;;4.86;100.00
2785;BME280;57944;48.722;9.316;2024-03-06T05:42:34;98206.91;;;4.96;100.00
2785;BME280;57944;48.722;9.316;2024-03-06T05:45:19;98214.34;;;4.97;100.00
2785;BME280;57944;48.722;9.316;2024-03-06T05:48:03;98212.00;;;5.04;100.00
2785;BME280;57944;48.722;9.316;2024-03-06T05:50:48;98218.53;;;5.14;100.00
2785;BME280;57944;48.722;9.316;2024-03-06T05:53:36;98228.66;;;5.14;100.00
2785;BME280;57944;48.722;9.316;2024-03-06T05:56:24;98230.72;;;5.19;100.00
2785;BME280;57944;48.722;9.316;2024-03-06T05:59:11;98231.16;;;5.14;100.00
2785;BME280;57944;48.722;9.316;2024-03-06T06:01:42;98238.25;;;5.11;100.00
2785;BME280;57944;48.722;9.316;2024-03-06T06:04:13;98240.03;;;5.19;100.00
2785;BME280;57944;48.722;9.316;2024-03-06T06:06:43;98243.50;;;5.18;100.00
2785;BME280;57944;48.722;9.316;2024-03-06T06:09:14;98249.84;;;5.22;100.00
2785;BME280;57944;48.722;9.316;2024-03-06T06:11:45;98257.59;;;5.28;100.00
2785;BME280;57944;48.722;9.316;2024-03-06T06:14:20;98253.94;;;5.23;100.00
2785;BME280;57944;48.722;9.316;2024-03-06T06:16:52;98256.34;;;4.98;100.00
2785;BME280;57944;48.722;9.316;2024-03-06T06:19:22;98258.97;;;5.14;100.00
2785;BME280;57944;48.722;9.316;2024-03-06T06:21:55;98262.47;;;5.22;100.00
2785;BME280;57944;48.722;9.316;2024-03-06T06:24:25;98269.75;;;5.25;100.00
2785;BME280;57944;48.722;9.316;2024-03-06T06:26:56;98272.28;;;5.25;100.00
2785;BME280;57944;48.722;9.316;2024-03-06T06:29:29;98278.38;;;5.14;100.00
2785;BME280;57944;48.722;9.316;2024-03-06T06:32:00;98282.34;;;5.17;100.00
2785;BME280;57944;48.722;9.316;2024-03-06T06:34:30;98278.38;;;5.14;100.00
2785;BME280;57944;48.722;9.316;2024-03-06T06:37:01;98274.63;;;4.92;100.00
2785;BME280;57944;48.722;9.316;2024-03-06T06:39:32;98279.97;;;4.89;100.00
2785;BME280;57944;48.722;9.316;2024-03-06T06:42:03;98271.78;;;4.95;100.00
2785;BME280;57944;48.722;9.316;2024-03-06T06:44:37;98276.09;;;5.03;100.00
2785;BME280;57944;48.722;9.316;2024-03-06T06:47:09;98281.75;;;5.23;100.00
2785;BME280;57944;48.722;9.316;2024-03-06T06:49:40;98281.19;;;5.37;100.00
2785;BME280;57944;48.722;9.316;2024-03-06T06:52:12;98281.22;;;5.45;100.00
2785;BME280;57944;48.722;9.316;2024-03-06T06:54:42;98286.31;;;5.53;100.00
2785;BME280;57944;48.722;9.316;2024-03-06T06:57:13;98287.59;;;5.57;100.00
2785;BME280;57944;48.722;9.316;2024-03-06T06:59:46;98284.47;;;5.64;100.00
2785;BME280;57944;48.722;9.316;2024-03-06T07:02:17;98285.25;;;5.64;100.00
2785;BME280;57944;48.722;9.316;2024-03-06T07:04:48;98289.09;;;5.42;100.00
2785;BME280;57944;48.722;9.316;2024-03-06T07:07:19;98288.09;;;5.27;100.00
2785;BME280;57944;48.722;9.316;2024-03-06T07:09:49;98288.94;;;5.35;100.00
2785;BME280;57944;48.722;9.316;2024-03-06T07:12:20;98283.91;;;5.44;100.00
2785;BME280;57944;48.722;9.316;2024-03-06T07:14:53;98292.00;;;5.55;100.00
2785;BME280;57944;48.722;9.316;2024-03-06T07:17:24;98297.06;;;5.55;100.00
2785;BME280;57944;48.722;9.316;2024-03-06T07:19:55;98304.22;;;5.68;100.00
2785;BME280;57944;48.722;9.316;2024-03-06T07:22:25;98303.66;;;5.82;100.00
2785;BME280;57944;48.722;9.316;2024-03-06T07:24:56;98296.22;;;5.81;100.00
2785;BME280;57944;48.722;9.316;2024-03-06T07:27:26;98301.53;;;5.70;100.00
2785;BME280;57944;48.722;9.316;2024-03-06T07:30:01;98306.25;;;5.65;100.00
2785;BME280;57944;48.722;9.316;2024-03-06T07:32:31;98304.66;;;5.55;100.00
2785;BME280;57944;48.722;9.316;2024-03-06T07:35:02;98307.03;;;5.65;100.00
2785;BME280;57944;48.722;9.316;2024-03-06T07:37:34;98306.63;;;5.78;100.00
2785;BME280;57944;48.722;9.316;2024-03-06T07:40:05;98311.28;;;5.99;100.00
2785;BME280;57944;48.722;9.316;2024-03-06T07:42:37;98309.72;;;5.98;100.00
2785;BME280;57944;48.722;9.316;2024-03-06T07:45:11;98316.53;;;5.97;100.00
2785;BME280;57944;48.722;9.316;2024-03-06T07:47:42;98321.66;;;5.88;100.00
2785;BME280;57944;48.722;9.316;2024-03-06T07:50:13;98327.59;;;5.96;100.00
2785;BME280;57944;48.722;9.316;2024-03-06T07:52:47;98324.75;;;5.99;100.00
2785;BME280;57944;48.722;9.316;2024-03-06T07:55:18;98328.63;;;5.86;100.00
2785;BME280;57944;48.722;9.316;2024-03-06T07:57:49;98326.69;;;5.71;100.00
2785;BME280;57944;48.722;9.316;2024-03-06T08:00:22;98331.59;;;5.73;100.00
2785;BME280;57944;48.722;9.316;2024-03-06T08:02:54;98336.06;;;5.87;100.00
2785;BME280;57944;48.722;9.316;2024-03-06T08:05:25;98339.59;;;5.94;100.00
2785;BME280;57944;48.722;9.316;2024-03-06T08:07:56;98337.13;;;6.11;100.00
2785;BME280;57944;48.722;9.316;2024-03-06T08:10:26;98337.44;;;6.08;100.00
2785;BME280;57944;48.722;9.316;2024-03-06T08:12:58;98335.53;;;6.10;100.00
2785;BME280;57944;48.722;9.316;2024-03-06T08:15:31;98338.78;;;6.44;100.00
2785;BME280;57944;48.722;9.316;2024-03-06T08:18:02;98339.69;;;6.19;100.00
2785;BME280;57944;48.722;9.316;2024-03-06T08:20:33;98336.06;;;6.21;100.00
2785;BME280;57944;48.722;9.316;2024-03-06T08:23:07;98341.19;;;5.95;100.00
2785;BME280;57944;48.722;9.316;2024-03-06T08:25:37;98341.50;;;6.00;100.00
2785;BME280;57944;48.722;9.316;2024-03-06T08:28:08;98336.13;;;5.95;100.00
2785;BME280;57944;48.722;9.316;2024-03-06T08:30:41;98338.25;;;5.82;100.00
2785;BME280;57944;48.722;9.316;2024-03-06T08:33:12;98340.25;;;5.96;100.00
2785;BME280;57944;48.722;9.316;2024-03-06T08:35:43;98336.03;;;5.79;100.00
2785;BME280;57944;48.722;9.316;2024-03-06T08:38:14;98341.19;;;6.03;100.00
2785;BME280;57944;48.722;9.316;2024-03-06T08:40:45;98334.66;;;5.93;100.00
2785;BME280;57944;48.722;9.316;2024-03-06T08:43:16;98349.34;;;5.89;100.00
2785;BME280;57944;48.722;9.316;2024-03-06T08:45:50;98350.66;;;5.93;100.00
2785;BME280;57944;48.722;9.316;2024-03-06T08:48:21;98347.19;;;5.94;100.00
2785;BME280;57944;48.722;9.316;2024-03-06T08:50:52;98347.91;;;5.87;100.00
2785;BME280;57944;48.722;9.316;2024-03-06T08:53:23;98356.63;;;5.92;100.00
2785;BME280;57944;48.722;9.316;2024-03-06T08:55:54;98351.84;;;5.81;100.00
2785;BME280;57944;48.722;9.316;2024-03-06T08:58:24;98349.63;;;5.78;100.00
2785;BME280;57944;48.722;9.316;2024-03-06T09:00:57;98354.69;;;5.78;100.00
2785;BME280;57944;48.722;9.316;2024-03-06T09:03:28;98360.19;;;5.99;100.00
2785;BME280;57944;48.722;9.316;2024-03-06T09:05:59;98356.69;;;6.00;100.00
2785;BME280;57944;48.722;9.316;2024-03-06T09:08:30;98353.41;;;5.82;100.00
2785;BME280;57944;48.722;9.316;2024-03-06T09:11:01;98355.03;;;5.83;100.00
2785;BME280;57944;48.722;9.316;2024-03-06T09:13:31;98357.06;;;5.88;100.00
2785;BME280;57944;48.722;9.316;2024-03-06T09:16:05;98364.22;;;5.92;100.00
2785;BME280;57944;48.722;9.316;2024-03-06T09:18:36;98358.13;;;5.69;100.00
2785;BME280;57944;48.722;9.316;2024-03-06T09:21:07;98360.09;;;5.83;100.00
2785;BME280;57944;48.722;9.316;2024-03-06T09:23:38;98363.84;;;5.79;100.00
2785;BME280;57944;48.722;9.316;2024-03-06T09:26:09;98369.22;;;5.76;100.00
2785;BME280;57944;48.722;9.316;2024-03-06T09:28:40;98362.31;;;5.86;100.00
2785;BME280;57944;48.722;9.316;2024-03-06T09:31:12;98367.78;;;5.73;100.00
2785;BME280;57944;48.722;9.316;2024-03-06T09:33:43;98378.22;;;5.78;100.00
2785;BME280;57944;48.722;9.316;2024-03-06T09:36:13;98375.66;;;5.96;100.00
2785;BME280;57944;48.722;9.316;2024-03-06T09:38:44;98379.97;;;6.12;100.00
2785;BME280;57944;48.722;9.316;2024-03-06T09:41:15;98383.59;;;6.10;100.00
2785;BME280;57944;48.722;9.316;2024-03-06T09:43:45;98389.31;;;6.12;100.00
2785;BME280;57944;48.722;9.316;2024-03-06T09:46:19;98386.78;;;6.12;100.00
2785;BME280;57944;48.722;9.316;2024-03-06T09:48:50;98387.94;;;5.91;100.00
2785;BME280;57944;48.722;9.316;2024-03-06T09:51:21;98389.94;;;5.79;100.00
2785;BME280;57944;48.722;9.316;2024-03-06T09:53:52;98389.25;;;5.95;100.00
2785;BME280;57944;48.722;9.316;2024-03-06T09:56:24;98390.13;;;5.86;100.00
2785;BME280;57944;48.722;9.316;2024-03-06T09:58:54;98391.84;;;5.77;100.00
2785;BME280;57944;48.722;9.316;2024-03-06T10:01:28;98397.94;;;5.67;100.00
2785;BME280;57944;48.722;9.316;2024-03-06T10:03:59;98395.38;;;5.58;100.00
2785;BME280;57944;48.722;9.316;2024-03-06T10:06:32;98395.72;;;5.64;100.00
2785;BME280;57944;48.722;9.316;2024-03-06T10:09:04;98404.88;;;5.65;100.00
2785;BME280;57944;48.722;9.316;2024-03-06T10:11:39;98396.75;;;5.53;100.00
2785;BME280;57944;48.722;9.316;2024-03-06T10:14:10;98399.47;;;5.59;100.00
2785;BME280;57944;48.722;9.316;2024-03-06T10:16:55;98393.31;;;5.62;100.00
2785;BME280;57944;48.722;9.316;2024-03-06T10:19:28;98398.19;;;5.55;100.00
2785;BME280;57944;48.722;9.316;2024-03-06T10:21:59;98402.09;;;5.50;100.00
2785;BME280;57944;48.722;9.316;2024-03-06T10:24:30;98395.78;;;5.54;100.00
2785;BME280;57944;48.722;9.316;2024-03-06T10:27:02;98399.84;;;5.73;100.00
2785;BME280;57944;48.722;9.316;2024-03-06T10:29:33;98400.59;;;5.91;100.00
2785;BME280;57944;48.722;9.316;2024-03-06T10:32:06;98397.50;;;6.06;100.00
2785;BME280;57944;48.722;9.316;2024-03-06T10:34:38;98395.16;;;6.12;100.00
2785;BME280;57944;48.722;9.316;2024-03-06T10:37:09;98398.47;;;6.04;100.00
2785;BME280;57944;48.722;9.316;2024-03-06T10:39:42;98396.88;;;6.03;100.00
2785;BME280;57944;48.722;9.316;2024-03-06T10:42:15;98405.09;;;6.06;100.00
2785;BME280;57944;48.722;9.316;2024-03-06T10:44:51;98400.09;;;6.22;100.00
2785;BME280;57944;48.722;9.316;2024-03-06T10:47:26;98401.00;;;6.04;100.00
2785;BME280;57944;48.722;9.316;2024-03-06T10:50:00;98397.78;;;5.94;100.00
2785;BME280;57944;48.722;9.316;2024-03-06T10:52:33;98401.47;;;5.82;100.00
2785;BME280;57944;48.722;9.316;2024-03-06T10:55:05;98402.34;;;5.91;100.00
2785;BME280;57944;48.722;9.316;2024-03-06T10:57:37;98400.16;;;5.96;100.00
2785;BME280;57944;48.722;9.316;2024-03-06T11:00:10;98403.81;;;6.01;100.00
2785;BME280;57944;48.722;9.316;2024-03-06T11:02:49;98406.44;;;6.26;100.00
2785;BME280;57944;48.722;9.316;2024-03-06T11:05:21;98398.22;;;6.32;100.00
2785;BME280;57944;48.722;9.316;2024-03-06T11:07:52;98406.78;;;6.31;100.00
2785;BME280;57944;48.722;9.316;2024-03-06T11:10:33;98406.38;;;6.68;100.00
2785;BME280;57944;48.722;9.316;2024-03-06T11:13:08;98407.78;;;6.63;100.00
2785;BME280;57944;48.722;9.316;2024-03-06T11:15:39;98407.13;;;6.44;100.00
2785;BME280;57944;48.722;9.316;2024-03-06T11:18:45;98403.63;;;6.37;100.00
2785;BME280;57944;48.722;9.316;2024-03-06T11:21:29;98413.63;;;6.47;100.00
2785;BME280;57944;48.722;9.316;2024-03-06T11:24:13;98405.16;;;6.22;100.00
2785;BME280;57944;48.722;9.316;2024-03-06T11:26:43;98409.91;;;6.25;100.00
2785;BME280;57944;48.722;9.316;2024-03-06T11:29:17;98408.34;;;6.32;100.00
2785;BME280;57944;48.722;9.316;2024-03-06T11:32:05;98410.41;;;6.29;100.00
2785;BME280;57944;48.722;9.316;2024-03-06T11:34:40;98409.66;;;6.44;100.00
2785;BME280;57944;48.722;9.316;2024-03-06T11:37:11;98416.28;;;6.37;100.00
2785;BME280;57944;48.722;9.316;2024-03-06T11:39:41;98407.69;;;6.22;100.00
2785;BME280;57944;48.722;9.316;2024-03-06T11:42:14;98412.59;;;6.23;100.00
2785;BME280;57944;48.722;9.316;2024-03-06T11:44:54;98412.78;;;6.30;100.00
2785;BME280;57944;48.722;9.316;2024-03-06T11:47:26;98409.44;;;6.21;100.00
2785;BME280;57944;48.722;9.316;2024-03-06T11:50:00;98405.13;;;6.14;100.00
2785;BME280;57944;48.722;9.316;2024-03-06T11:52:33;98407.06;;;6.20;100.00
2785;BME280;57944;48.722;9.316;2024-03-06T11:55:04;98404.38;;;6.21;100.00
2785;BME280;57944;48.722;9.316;2024-03-06T11:57:36;98405.44;;;6.11;100.00
2785;BME280;57944;48.722;9.316;2024-03-06T12:00:09;98400.84;;;6.06;100.00
2785;BME280;57944;48.722;9.316;2024-03-06T12:02:41;98408.28;;;6.08;100.00
2785;BME280;57944;48.722;9.316;2024-03-06T12:05:14;98401.63;;;6.07;100.00
2785;BME280;57944;48.722;9.316;2024-03-06T12:07:46;98399.84;;;5.99;100.00
2785;BME280;57944;48.722;9.316;2024-03-06T12:10:17;98390.38;;;6.01;100.00
2785;BME280;57944;48.722;9.316;2024-03-06T12:12:48;98404.91;;;5.99;100.00
2785;BME280;57944;48.722;9.316;2024-03-06T12:15:18;98407.28;;;6.00;100.00
2785;BME280;57944;48.722;9.316;2024-03-06T12:17:50;98398.94;;;6.08;100.00
2785;BME280;57944;48.722;9.316;2024-03-06T12:20:24;98405.13;;;6.14;100.00
2785;BME280;57944;48.722;9.316;2024-03-06T12:22:58;98401.81;;;6.13;100.00
2785;BME280;57944;48.722;9.316;2024-03-06T12:25:29;98409.13;;;6.24;100.00
2785;BME280;57944;48.722;9.316;2024-03-06T12:28:08;98405.47;;;6.19;100.00
2785;BME280;57944;48.722;9.316;2024-03-06T12:30:42;98409.84;;;6.09;100.00
2785;BME280;57944;48.722;9.316;2024-03-06T12:33:17;98414.44;;;6.05;100.00
2785;BME280;57944;48.722;9.316;2024-03-06T12:36:03;98412.53;;;6.07;100.00
2785;BME280;57944;48.722;9.316;2024-03-06T12:38:39;98411.31;;;6.19;100.00
2785;BME280;57944;48.722;9.316;2024-03-06T12:41:09;98409.59;;;6.20;100.00
2785;BME280;57944;48.722;9.316;2024-03-06T12:43:40;98412.59;;;6.23;100.00
2785;BME280;57944;48.722;9.316;2024-03-06T12:46:11;98408.47;;;6.14;100.00
2785;BME280;57944;48.722;9.316;2024-03-06T12:48:44;98409.56;;;6.12;100.00
2785;BME280;57944;48.722;9.316;2024-03-06T12:51:17;98403.53;;;6.04;100.00
2785;BME280;57944;48.722;9.316;2024-03-06T12:53:47;98408.28;;;6.08;100.00
2785;BME280;57944;48.722;9.316;2024-03-06T12:56:19;98401.94;;;6.03;100.00
2785;BME280;57944;48.722;9.316;2024-03-06T12:58:49;98403.69;;;6.11;100.00
2785;BME280;57944;48.722;9.316;2024-03-06T13:01:20;98402.56;;;6.06;100.00
2785;BME280;57944;48.722;9.316;2024-03-06T13:03:51;98395.31;;;6.11;100.00
2785;BME280;57944;48.722;9.316;2024-03-06T13:06:32;98397.81;;;6.02;100.00
2785;BME280;57944;48.722;9.316;2024-03-06T13:09:03;98393.41;;;6.13;100.00
2785;BME280;57944;48.722;9.316;2024-03-06T13:11:34;98396.63;;;6.23;100.00
2785;BME280;57944;48.722;9.316;2024-03-06T13:14:05;98407.53;;;6.23;100.00
2785;BME280;57944;48.722;9.316;2024-03-06T13:16:38;98400.72;;;6.24;100.00
2785;BME280;57944;48.722;9.316;2024-03-06T13:19:09;98396.44;;;6.16;100.00
2785;BME280;57944;48.722;9.316;2024-03-06T13:21:42;98399.28;;;6.13;100.00
2785;BME280;57944;48.722;9.316;2024-03-06T13:24:13;98399.16;;;6.23;100.00
2785;BME280;57944;48.722;9.316;2024-03-06T13:26:43;98388.69;;;6.18;100.00
2785;BME280;57944;48.722;9.316;2024-03-06T13:29:14;98391.41;;;6.24;100.00
2785;BME280;57944;48.722;9.316;2024-03-06T13:31:45;98394.13;;;6.31;100.00
2785;BME280;57944;48.722;9.316;2024-03-06T13:34:15;98396.97;;;6.28;100.00
2785;BME280;57944;48.722;9.316;2024-03-06T13:36:49;98402.31;;;6.25;100.00
2785;BME280;57944;48.722;9.316;2024-03-06T13:39:19;98398.88;;;6.34;100.00